Haaren, Netherlands
Current Conditions -  °F | °C
As of 8:25 PM on Tuesday 21 Oct 2014 (Local Time) from EHGR Reporting Station
Broken Clouds Broken Clouds  
Wind Chill: 50°   Ceiling: 3700
Heat Index: 50°   Visibility: 6mi
Dew Point: 43°   Wind: 15mph
Humidity: 76%   Direction: 280°W
Pressure: 29.68"   Gusts: 28mph
Location:  51.6°N, 5.22°E
Report Text: EHGR 211825Z AUTO 28013G24KT 9999 FEW032 BKN037 BKN044 10/06 Q1005 RERA BLU 29019G32KT 9999 SCT020 SCT030 TEMPO 27028G40KT 3500 SHRA SCT010 BKN015CB RMK TS INFO NOT AVBL
Loading
Personal Weather Stations






























Interactive Weather Map
Tropical Storm Tracking
New forecast layout! Learn more

10-Day Weather Forecast

Advertisements
Track Severe Weather on mobile